Time;durP1;ratioP1;P1;durP2;ratioP2;P2;SDS_P1;SDS_P2;PMS_P1;PMS_P2;Temp;Humidity;BMP_temperature;BMP_pressure;BME280_temperature;BME280_humidity;BME280_pressure;Samples;Min_cycle;Max_cycle;Signal;HPM_P1;HPM_P2
2023/03/27 00:02:20;;;;;;;8.63;1.75;;;;;;;2.44;100.00;101339.69;5290354;28;20529;-66
2023/03/27 00:04:53;;;;;;;14.55;1.85;;;;;;;2.45;100.00;101344.00;5282394;28;20039;-67
2023/03/27 00:07:24;;;;;;;12.07;2.10;;;;;;;2.50;100.00;101347.34;5282651;28;20041;-66
2023/03/27 00:09:56;;;;;;;9.95;1.88;;;;;;;2.52;100.00;101355.22;5285790;28;20035;-66
2023/03/27 00:12:27;;;;;;;12.32;2.13;;;;;;;2.53;100.00;101355.16;5285737;28;20177;-66
2023/03/27 00:14:59;;;;;;;11.90;2.40;;;;;;;2.58;100.00;101362.03;5289352;28;20016;-66
2023/03/27 00:17:31;;;;;;;9.48;1.80;;;;;;;2.57;100.00;101369.09;5284165;28;20031;-66
2023/03/27 00:20:04;;;;;;;10.65;2.25;;;;;;;2.56;100.00;101372.63;5286017;28;20032;-66
2023/03/27 00:22:35;;;;;;;9.80;1.92;;;;;;;2.59;100.00;101371.66;5280718;28;20025;-66
2023/03/27 00:25:09;;;;;;;9.73;2.22;;;;;;;2.62;100.00;101379.47;5282728;28;20122;-66
2023/03/27 00:27:40;;;;;;;10.83;2.40;;;;;;;2.60;100.00;101383.91;5281450;28;20042;-66
2023/03/27 00:30:12;;;;;;;8.63;1.70;;;;;;;2.59;100.00;101390.97;5286112;28;20028;-66
2023/03/27 00:32:43;;;;;;;10.18;1.67;;;;;;;2.59;100.00;101390.09;5284350;28;20050;-66
2023/03/27 00:35:15;;;;;;;8.63;1.63;;;;;;;2.58;100.00;101401.56;5283372;28;20028;-66
2023/03/27 00:37:46;;;;;;;6.97;1.33;;;;;;;2.57;100.00;101399.81;5284762;28;20026;-67
2023/03/27 00:40:18;;;;;;;8.45;1.30;;;;;;;2.54;100.00;101387.63;5284835;28;20454;-66
2023/03/27 00:42:51;;;;;;;8.07;1.73;;;;;;;2.48;100.00;101385.22;5282556;28;20129;-66
2023/03/27 00:45:23;;;;;;;7.30;1.58;;;;;;;2.46;100.00;101389.66;5284495;28;20115;-67
2023/03/27 00:47:59;;;;;;;9.38;1.48;;;;;;;2.46;100.00;101397.56;5285647;28;20028;-67
2023/03/27 00:50:35;;;;;;;10.15;2.15;;;;;;;2.40;100.00;101401.25;5283573;28;20036;-66
2023/03/27 00:53:12;;;;;;;10.40;2.20;;;;;;;2.38;100.00;101404.84;5286398;28;20024;-66
2023/03/27 00:55:47;;;;;;;8.20;1.73;;;;;;;2.34;100.00;101404.13;5284120;28;20085;-66
2023/03/27 00:58:43;;;;;;;10.20;2.63;;;;;;;2.33;100.00;101421.66;5285409;28;20032;-66
2023/03/27 01:01:15;;;;;;;9.98;2.03;;;;;;;2.31;100.00;101428.75;5285711;28;20058;-67
2023/03/27 01:03:48;;;;;;;12.43;1.73;;;;;;;2.29;100.00;101420.03;5285927;28;20031;-66
2023/03/27 01:06:21;;;;;;;9.15;1.55;;;;;;;2.27;100.00;101432.41;5286097;28;20481;-66
2023/03/27 01:08:52;;;;;;;7.53;1.60;;;;;;;2.26;100.00;101424.53;5285869;28;20077;-66
2023/03/27 01:11:54;;;;;;;9.88;1.98;;;;;;;2.24;100.00;101429.84;5282843;28;20127;-66
2023/03/27 01:14:40;;;;;;;6.93;1.58;;;;;;;2.19;100.00;101429.16;5280708;28;20060;-67
2023/03/27 01:17:31;;;;;;;9.48;2.05;;;;;;;2.18;100.00;101426.56;5283952;28;20103;-66
2023/03/27 01:20:09;;;;;;;8.30;1.50;;;;;;;2.23;100.00;101429.94;5280586;28;20053;-66
2023/03/27 01:23:22;;;;;;;8.30;1.75;;;;;;;2.16;100.00;101437.16;5281270;28;20086;-66
2023/03/27 01:26:18;;;;;;;8.95;2.05;;;;;;;2.15;100.00;101444.19;5280077;28;20036;-66
2023/03/27 01:29:10;;;;;;;8.90;1.85;;;;;;;2.16;100.00;101442.41;5279088;28;20044;-66
2023/03/27 01:32:09;;;;;;;9.13;1.58;;;;;;;2.18;100.00;101445.00;5282422;28;20028;-67
2023/03/27 01:35:07;;;;;;;5.75;1.63;;;;;;;2.23;100.00;101449.22;5283084;28;20037;-66
2023/03/27 01:38:04;;;;;;;8.05;1.65;;;;;;;2.23;100.00;101449.22;5281204;28;20087;-67
2023/03/27 01:41:10;;;;;;;6.95;1.80;;;;;;;2.28;100.00;101459.59;5279659;28;20309;-66
2023/03/27 01:43:49;;;;;;;7.30;1.83;;;;;;;2.30;100.00;101463.03;5284772;28;20028;-66
2023/03/27 01:46:30;;;;;;;8.07;1.58;;;;;;;2.33;100.00;101468.22;5281386;28;20043;-66
2023/03/27 01:49:07;;;;;;;8.48;1.80;;;;;;;2.35;100.00;101477.78;5291330;27;20118;-66
2023/03/27 01:51:45;;;;;;;8.15;1.80;;;;;;;2.40;100.00;101469.75;5285655;28;20390;-67
2023/03/27 01:54:33;;;;;;;10.07;2.63;;;;;;;2.42;100.00;101478.44;5283074;28;20039;-67
2023/03/27 01:57:09;;;;;;;6.63;1.90;;;;;;;2.45;100.00;101480.97;5281765;28;20118;-66
2023/03/27 01:59:44;;;;;;;8.07;1.95;;;;;;;2.45;100.00;101477.47;5282670;28;20033;-66
2023/03/27 02:02:24;;;;;;;13.38;2.28;;;;;;;2.44;100.00;101481.88;5287572;28;20044;-67
2023/03/27 02:05:10;;;;;;;9.20;1.75;;;;;;;2.44;100.00;101481.88;5282769;28;20056;-67
2023/03/27 02:07:50;;;;;;;12.25;2.22;;;;;;;2.44;100.00;101479.25;5282645;28;20044;-67
2023/03/27 02:10:28;;;;;;;9.45;2.35;;;;;;;2.45;100.00;101486.22;5283088;28;20032;-67
2023/03/27 02:13:05;;;;;;;7.50;2.50;;;;;;;2.42;100.00;101499.50;5284040;28;20024;-66
2023/03/27 02:15:40;;;;;;;12.13;2.05;;;;;;;2.49;100.00;101495.78;5280975;28;20118;-67
2023/03/27 02:18:18;;;;;;;10.75;2.38;;;;;;;2.40;100.00;101501.34;5275946;28;20023;-67
2023/03/27 02:20:49;;;;;;;10.57;2.63;;;;;;;2.41;100.00;101495.16;5282505;28;20157;-66
2023/03/27 02:23:21;;;;;;;7.75;1.95;;;;;;;2.35;100.00;101501.47;5279394;28;20428;-67
2023/03/27 02:25:53;;;;;;;7.38;2.30;;;;;;;2.32;100.00;101513.88;5280505;28;21211;-66
2023/03/27 02:28:37;;;;;;;6.32;2.50;;;;;;;2.29;100.00;101527.16;5277351;28;20052;-66
2023/03/27 02:31:17;;;;;;;10.10;2.47;;;;;;;2.26;100.00;101522.84;5277548;28;20028;-67
2023/03/27 02:34:17;;;;;;;10.18;2.30;;;;;;;2.24;100.00;101518.50;5280186;28;20032;-67
2023/03/27 02:37:29;;;;;;;11.32;2.35;;;;;;;2.32;100.00;101530.56;5280152;28;20435;-66
2023/03/27 02:40:08;;;;;;;6.13;2.47;;;;;;;2.21;100.00;101529.16;5285435;28;20028;-67
2023/03/27 02:42:53;;;;;;;7.57;2.13;;;;;;;2.21;100.00;101537.06;5278859;28;20071;-66
2023/03/27 02:45:31;;;;;;;9.25;2.40;;;;;;;2.16;100.00;101534.53;5280582;28;20082;-67
2023/03/27 02:48:17;;;;;;;7.60;2.30;;;;;;;2.10;100.00;101537.38;5285911;28;20398;-66
2023/03/27 02:51:01;;;;;;;12.40;2.42;;;;;;;2.03;100.00;101536.69;5286964;28;20024;-66
2023/03/27 02:53:44;;;;;;;10.73;2.35;;;;;;;1.98;100.00;101543.88;5286840;28;20114;-66
2023/03/27 02:56:18;;;;;;;9.85;2.38;;;;;;;1.89;100.00;101544.13;5282555;28;20132;-66
2023/03/27 02:58:56;;;;;;;;;;;;;;;1.94;100.00;101539.59;5282956;28;20035;-66
2023/03/27 03:01:29;;;;;;;8.50;1.95;;;;;;;1.87;100.00;101549.44;5281755;28;19916;-66
2023/03/27 03:04:09;;;;;;;7.43;2.35;;;;;;;1.83;100.00;101546.94;5278793;28;20043;-66
2023/03/27 03:06:41;;;;;;;7.93;2.13;;;;;;;1.83;100.00;101553.06;5282999;28;20527;-66
2023/03/27 03:09:13;;;;;;;7.07;1.95;;;;;;;1.88;100.00;101566.06;5283128;28;20151;-66
2023/03/27 03:11:48;;;;;;;7.20;2.10;;;;;;;1.83;100.00;101566.22;5282385;28;20032;-66
2023/03/27 03:14:25;;;;;;;8.20;2.10;;;;;;;1.83;100.00;101565.38;5282028;28;20410;-66
2023/03/27 03:16:56;;;;;;;10.30;1.98;;;;;;;1.81;100.00;101564.53;5286604;28;20035;-66
2023/03/27 03:19:28;;;;;;;10.00;2.03;;;;;;;1.79;100.00;101572.47;5287135;28;20039;-66
2023/03/27 03:22:00;;;;;;;8.38;2.03;;;;;;;1.79;100.00;101574.25;5284876;28;20038;-67
2023/03/27 03:24:34;;;;;;;8.95;1.90;;;;;;;1.76;100.00;101576.06;5288004;28;20036;-66
2023/03/27 03:27:05;;;;;;;7.90;2.00;;;;;;;1.74;100.00;101582.25;5282739;28;20056;-66
2023/03/27 03:29:37;;;;;;;16.55;2.10;;;;;;;1.69;100.00;101579.75;5301584;28;20138;-66
2023/03/27 03:32:09;;;;;;;9.15;2.10;;;;;;;1.66;100.00;101587.72;5285042;28;20425;-66
2023/03/27 03:34:45;;;;;;;7.07;1.92;;;;;;;1.63;100.00;101595.72;5284622;27;20445;-66
2023/03/27 03:37:17;;;;;;;8.55;1.95;;;;;;;1.61;100.00;101597.53;5283213;28;20030;-66
2023/03/27 03:39:49;;;;;;;8.65;2.40;;;;;;;1.61;100.00;101605.44;5288474;28;20032;-66
2023/03/27 03:42:21;;;;;;;7.22;1.98;;;;;;;1.57;100.00;101606.38;5286225;28;20371;-66
2023/03/27 03:44:52;;;;;;;9.95;1.90;;;;;;;1.54;100.00;101606.50;5284825;28;20570;-66
2023/03/27 03:47:24;;;;;;;9.63;2.28;;;;;;;1.55;100.00;101613.44;5284914;28;20020;-66
2023/03/27 03:49:55;;;;;;;7.35;1.63;;;;;;;1.55;100.00;101621.34;5284813;28;20481;-66
2023/03/27 03:52:27;;;;;;;7.20;1.95;;;;;;;1.55;100.00;101616.09;5284519;28;20599;-66
2023/03/27 03:54:58;;;;;;;11.27;2.13;;;;;;;1.54;100.00;101625.75;5284293;28;20024;-66
2023/03/27 03:57:30;;;;;;;7.68;2.13;;;;;;;1.56;100.00;101621.31;5285713;28;20023;-66
2023/03/27 04:00:07;;;;;;;9.55;2.35;;;;;;;1.62;100.00;101633.44;5284057;28;20097;-66
2023/03/27 04:02:40;;;;;;;9.13;1.90;;;;;;;1.60;100.00;101634.41;5283598;28;20163;-66
2023/03/27 04:05:11;;;;;;;9.60;2.22;;;;;;;1.59;100.00;101644.03;5286185;28;20031;-66
2023/03/27 04:07:44;;;;;;;8.55;2.00;;;;;;;1.58;100.00;101646.72;5285367;28;20379;-66
2023/03/27 04:10:16;;;;;;;6.88;1.55;;;;;;;1.56;100.00;101649.38;5286053;28;20024;-66
2023/03/27 04:12:48;;;;;;;9.35;2.05;;;;;;;1.56;100.00;101644.13;5289255;28;20039;-66
2023/03/27 04:15:21;;;;;;;9.30;2.17;;;;;;;1.61;100.00;101646.63;5284027;28;20029;-66
2023/03/27 04:17:52;;;;;;;8.88;1.85;;;;;;;1.52;100.00;101653.84;5280763;28;20554;-66
2023/03/27 04:20:25;;;;;;;7.60;2.00;;;;;;;1.51;100.00;101652.13;5281911;28;20030;-67
2023/03/27 04:23:01;;;;;;;7.47;2.00;;;;;;;1.50;100.00;101662.69;5283920;28;20028;-66
2023/03/27 04:25:32;;;;;;;5.70;2.00;;;;;;;1.49;100.00;101660.97;5286750;28;20035;-66
2023/03/27 04:28:04;;;;;;;8.40;1.80;;;;;;;1.47;100.00;101668.03;5284174;28;20392;-67
2023/03/27 04:30:35;;;;;;;7.18;1.77;;;;;;;1.46;100.00;101668.91;5286037;28;20717;-66
2023/03/27 04:33:07;;;;;;;9.02;1.98;;;;;;;1.45;100.00;101675.09;5282266;28;20024;-66
2023/03/27 04:35:38;;;;;;;9.48;2.63;;;;;;;1.44;100.00;101681.25;5287646;28;20079;-66
2023/03/27 04:38:11;;;;;;;9.95;2.30;;;;;;;1.49;100.00;101684.63;5281581;28;20027;-66
2023/03/27 04:40:48;;;;;;;11.00;2.05;;;;;;;1.40;100.00;101696.25;5285784;28;20039;-66
2023/03/27 04:43:20;;;;;;;5.50;2.20;;;;;;;1.37;100.00;101696.31;5285535;28;20115;-66
2023/03/27 04:45:52;;;;;;;10.88;2.70;;;;;;;1.33;100.00;101694.66;5283494;28;20434;-66
2023/03/27 04:48:23;;;;;;;8.63;1.70;;;;;;;1.29;100.00;101701.75;5284856;28;20473;-66
2023/03/27 04:50:55;;;;;;;6.20;1.90;;;;;;;1.30;100.00;101706.09;5283764;28;20036;-66
2023/03/27 04:53:29;;;;;;;6.90;2.00;;;;;;;1.27;100.00;101710.59;5281205;28;20893;-66
2023/03/27 04:56:00;;;;;;;5.18;1.67;;;;;;;1.27;100.00;101708.81;5288125;28;20103;-66
2023/03/27 04:58:32;;;;;;;8.88;1.90;;;;;;;1.29;100.00;101714.06;5281903;28;20031;-66
2023/03/27 05:01:04;;;;;;;10.20;1.95;;;;;;;1.29;100.00;101721.94;5286008;28;20031;-66
2023/03/27 05:03:35;;;;;;;8.80;1.60;;;;;;;1.28;100.00;101718.41;5282973;28;20174;-66
2023/03/27 05:06:07;;;;;;;9.45;2.10;;;;;;;1.29;100.00;101730.69;5285187;28;20032;-66
2023/03/27 05:08:38;;;;;;;7.35;1.83;;;;;;;1.31;100.00;101726.25;5283608;28;20031;-66
2023/03/27 05:11:10;;;;;;;9.50;2.35;;;;;;;1.33;100.00;101727.06;5282439;28;20036;-66
2023/03/27 05:13:41;;;;;;;7.75;1.90;;;;;;;1.35;100.00;101733.16;5285510;28;20034;-66
2023/03/27 05:16:12;;;;;;;4.30;1.63;;;;;;;1.35;100.00;101741.03;5279986;28;20024;-66
2023/03/27 05:18:44;;;;;;;6.80;1.88;;;;;;;1.36;100.00;101742.78;5281811;28;20046;-66
2023/03/27 05:21:15;;;;;;;7.07;2.17;;;;;;;1.43;100.00;101740.84;5284616;28;20089;-66
2023/03/27 05:23:47;;;;;;;6.15;2.10;;;;;;;1.43;100.00;101748.75;5286836;28;20377;-66
2023/03/27 05:26:18;;;;;;;7.60;1.98;;;;;;;1.43;100.00;101759.28;5284332;28;20541;-66
2023/03/27 05:28:51;;;;;;;6.03;2.05;;;;;;;1.47;100.00;101762.69;5284301;28;20101;-66
2023/03/27 05:31:23;;;;;;;7.70;2.63;;;;;;;1.49;100.00;101756.47;5280590;28;21943;-67
2023/03/27 05:33:55;;;;;;;5.93;2.30;;;;;;;1.51;100.00;101762.56;5284790;28;20066;-67
2023/03/27 05:36:27;;;;;;;8.30;2.28;;;;;;;1.56;100.00;101762.47;5274707;28;20020;-66
2023/03/27 05:38:58;;;;;;;8.98;1.85;;;;;;;1.58;100.00;101771.19;5282326;28;20035;-67
2023/03/27 05:41:30;;;;;;;6.93;2.17;;;;;;;1.61;100.00;101771.13;5280970;28;20028;-66
2023/03/27 05:44:02;;;;;;;9.18;2.13;;;;;;;1.65;100.00;101774.53;5290054;28;20104;-66
2023/03/27 05:46:33;;;;;;;8.10;2.22;;;;;;;1.72;100.00;101776.13;5281964;28;20024;-66
2023/03/27 05:49:05;;;;;;;9.70;2.45;;;;;;;1.70;100.00;101784.03;5289226;28;20038;-66
2023/03/27 05:51:36;;;;;;;7.95;2.65;;;;;;;1.85;100.00;101788.06;5284996;28;20052;-66
2023/03/27 05:54:07;;;;;;;8.35;2.40;;;;;;;1.79;100.00;101793.47;5286012;28;20048;-66
2023/03/27 05:56:39;;;;;;;10.98;2.78;;;;;;;1.75;100.00;101790.06;5293948;28;20024;-67
2023/03/27 05:59:10;;;;;;;11.88;2.40;;;;;;;1.72;100.00;101798.00;5283551;28;20029;-67
2023/03/27 06:01:42;;;;;;;7.88;2.63;;;;;;;1.69;100.00;101798.09;5268043;28;20085;-68
2023/03/27 06:04:15;;;;;;;8.00;2.08;;;;;;;1.69;100.00;101792.84;5289924;28;20027;-67
2023/03/27 06:06:46;;;;;;;7.95;2.17;;;;;;;1.71;100.00;101801.56;5290711;28;20487;-66
2023/03/27 06:09:18;;;;;;;6.45;2.08;;;;;;;1.75;100.00;101811.09;5289535;28;20028;-67
2023/03/27 06:11:49;;;;;;;6.72;2.35;;;;;;;1.80;100.00;101821.50;5292444;28;20043;-67
2023/03/27 06:14:20;;;;;;;6.93;2.28;;;;;;;1.84;100.00;101827.56;5287567;28;20467;-67
2023/03/27 06:16:52;;;;;;;10.45;2.33;;;;;;;1.90;100.00;101843.22;5286062;28;20055;-67
2023/03/27 06:19:23;;;;;;;7.63;3.33;;;;;;;1.95;100.00;101850.06;5284929;28;20036;-67
2023/03/27 06:21:55;;;;;;;11.00;3.55;;;;;;;1.92;100.00;101855.44;5288598;28;20201;-67
2023/03/27 06:24:26;;;;;;;7.13;3.40;;;;;;;1.86;100.00;101852.06;5289219;28;20063;-67
2023/03/27 06:26:57;;;;;;;10.20;5.97;;;;;;;1.79;100.00;101842.63;5290773;28;20048;-66
2023/03/27 06:29:29;;;;;;;10.15;5.93;;;;;;;1.68;100.00;101833.19;5293496;28;20585;-67
2023/03/27 06:32:01;;;;;;;8.90;5.68;;;;;;;1.65;100.00;101843.81;5283908;28;20024;-66
2023/03/27 06:34:32;;;;;;;8.30;5.78;;;;;;;1.61;100.00;101839.53;5284685;28;20036;-66
2023/03/27 06:37:04;;;;;;;6.15;4.55;;;;;;;1.58;100.00;101851.88;5285438;28;20101;-66
2023/03/27 06:39:36;;;;;;;8.60;3.50;;;;;;;1.60;100.00;101847.44;5287368;28;20603;-66
2023/03/27 06:42:07;;;;;;;8.00;3.67;;;;;;;1.53;100.00;101859.84;5288473;28;20493;-66
2023/03/27 06:44:38;;;;;;;8.20;3.30;;;;;;;1.47;100.00;101860.84;5287354;28;20047;-66
2023/03/27 06:47:11;;;;;;;6.75;3.90;;;;;;;1.46;100.00;101860.88;5280040;28;20170;-66
2023/03/27 06:49:46;;;;;;;9.25;4.63;;;;;;;1.45;100.00;101867.06;5293662;28;20055;-67
2023/03/27 06:52:17;;;;;;;7.82;4.25;;;;;;;1.49;100.00;101869.56;5295113;28;20031;-66
2023/03/27 06:54:49;;;;;;;10.48;4.90;;;;;;;1.41;100.00;101862.75;5294183;28;20027;-67
2023/03/27 06:57:20;;;;;;;13.65;4.63;;;;;;;1.45;100.00;101881.06;5296942;28;20607;-66
2023/03/27 06:59:52;;;;;;;7.47;3.97;;;;;;;1.45;100.00;101882.81;5297229;28;20032;-66
2023/03/27 07:02:23;;;;;;;8.20;3.60;;;;;;;1.45;100.00;101891.56;5284407;28;20500;-66
2023/03/27 07:04:54;;;;;;;9.13;3.47;;;;;;;1.45;100.00;101888.94;5292626;28;20501;-66
2023/03/27 07:07:27;;;;;;;10.57;3.67;;;;;;;1.49;100.00;101897.63;5295859;28;20072;-67
2023/03/27 07:09:58;;;;;;;6.32;3.45;;;;;;;1.49;100.00;101889.75;5297477;28;20028;-67
2023/03/27 07:12:29;;;;;;;8.95;3.75;;;;;;;1.52;100.00;101900.22;5297420;28;20439;-66
2023/03/27 07:15:02;;;;;;;8.27;3.20;;;;;;;1.53;100.00;101899.28;5296491;28;20418;-67
2023/03/27 07:17:33;;;;;;;6.68;3.30;;;;;;;1.57;100.00;101911.47;5293812;28;20036;-67
2023/03/27 07:20:06;;;;;;;9.75;3.55;;;;;;;1.61;100.00;101907.03;5296982;28;20048;-67
2023/03/27 07:22:41;;;;;;;7.18;4.13;;;;;;;1.70;100.00;101899.78;5297020;28;20405;-66
2023/03/27 07:25:13;;;;;;;6.03;3.50;;;;;;;1.70;100.00;101904.19;5297539;28;20117;-66
2023/03/27 07:27:44;;;;;;;8.68;4.25;;;;;;;1.75;100.00;101915.50;5293743;28;20138;-66
2023/03/27 07:30:16;;;;;;;9.40;3.75;;;;;;;1.83;100.00;101917.94;5294016;28;20051;-67
2023/03/27 07:32:47;;;;;;;9.13;3.55;;;;;;;1.89;100.00;101916.03;5288382;28;20031;-67
2023/03/27 07:35:19;;;;;;;8.23;3.50;;;;;;;1.97;100.00;101921.09;5292915;28;20031;-66
2023/03/27 07:37:54;;;;;;;8.73;3.08;;;;;;;2.06;100.00;101918.25;5295376;28;20051;-67
2023/03/27 07:40:25;;;;;;;7.20;2.72;;;;;;;2.13;100.00;101930.38;5286711;28;20035;-67
2023/03/27 07:42:57;;;;;;;9.57;2.58;;;;;;;2.22;100.00;101928.44;5298429;28;20059;-66
2023/03/27 07:45:29;;;;;;;9.02;2.45;;;;;;;2.28;100.00;101921.25;5288966;28;20036;-67
2023/03/27 07:48:09;;;;;;;8.68;2.63;;;;;;;2.35;100.00;101921.97;5293165;28;20031;-67
2023/03/27 07:50:41;;;;;;;6.65;2.63;;;;;;;2.42;100.00;101928.81;5292327;28;20036;-67
2023/03/27 07:53:13;;;;;;;7.40;1.92;;;;;;;2.52;100.00;101922.41;5295409;28;20027;-67
2023/03/27 07:55:45;;;;;;;5.15;1.70;;;;;;;2.64;100.00;101931.75;5289844;28;20082;-67
2023/03/27 07:58:17;;;;;;;7.63;2.17;;;;;;;2.75;100.00;101927.06;5298974;28;20035;-67
2023/03/27 08:00:50;;;;;;;4.97;1.83;;;;;;;2.80;100.00;101926.97;5296137;28;20457;-67
2023/03/27 08:03:24;;;;;;;9.45;1.95;;;;;;;2.89;100.00;101933.75;5292013;28;20082;-67
2023/03/27 08:05:57;;;;;;;;;;;;;;;3.03;100.00;101934.25;5292359;28;20542;-67
2023/03/27 08:08:28;;;;;;;5.72;1.52;;;;;;;3.05;100.00;101928.91;5290759;28;20010;-67
2023/03/27 08:11:01;;;;;;;10.02;1.52;;;;;;;3.15;100.00;101927.75;5295218;28;20030;-67
2023/03/27 08:13:33;;;;;;;7.38;2.25;;;;;;;3.18;100.00;101926.81;5288891;28;20402;-67
2023/03/27 08:16:13;;;;;;;8.82;1.70;;;;;;;3.29;100.00;101935.28;5281620;28;20093;-67
2023/03/27 08:18:48;;;;;;;9.25;1.60;;;;;;;3.45;100.00;101930.41;5290424;28;20047;-67
2023/03/27 08:21:20;;;;;;;6.80;1.30;;;;;;;3.61;100.00;101944.91;5286318;28;20466;-66
2023/03/27 08:23:51;;;;;;;7.25;1.40;;;;;;;3.81;100.00;101948.72;5287272;28;20019;-67
2023/03/27 08:26:24;;;;;;;6.70;1.30;;;;;;;3.98;100.00;101956.13;5286972;28;20105;-66
2023/03/27 08:28:57;;;;;;;4.60;1.05;;;;;;;3.96;100.00;101958.81;5286727;28;20050;-66
2023/03/27 08:31:30;;;;;;;3.92;1.15;;;;;;;3.84;100.00;101957.41;5293986;28;20110;-66
2023/03/27 08:34:01;;;;;;;3.35;0.70;;;;;;;3.80;100.00;101955.78;5289540;28;20028;-67
2023/03/27 08:36:33;;;;;;;5.90;0.85;;;;;;;3.79;100.00;101955.81;5294051;28;20385;-67
2023/03/27 08:39:06;;;;;;;6.30;0.98;;;;;;;3.87;100.00;101967.00;5295318;28;20099;-67
2023/03/27 08:41:42;;;;;;;3.92;0.65;;;;;;;3.92;100.00;101962.44;5294576;28;20035;-67
2023/03/27 08:44:18;;;;;;;3.55;0.82;;;;;;;3.96;100.00;101956.16;5294980;28;20529;-67
2023/03/27 08:47:08;;;;;;;5.00;1.00;;;;;;;4.04;100.00;101969.97;5294742;28;20482;-67
2023/03/27 08:49:51;;;;;;;5.97;1.00;;;;;;;4.11;100.00;101962.75;5295801;28;20523;-67
2023/03/27 08:52:25;;;;;;;6.82;2.03;;;;;;;4.15;100.00;101974.09;5296176;28;20039;-67
2023/03/27 08:55:04;;;;;;;8.00;1.20;;;;;;;4.27;100.00;101966.63;5293846;28;20361;-67
2023/03/27 08:57:36;;;;;;;8.93;1.33;;;;;;;4.34;100.00;101974.38;5291262;28;20032;-67
2023/03/27 09:00:18;;;;;;;6.50;1.17;;;;;;;4.45;100.00;101978.38;5293777;28;20025;-67
2023/03/27 09:03:00;;;;;;;7.70;1.50;;;;;;;4.61;100.00;101973.44;5289754;28;20028;-67
2023/03/27 09:05:39;;;;;;;6.75;1.17;;;;;;;4.72;100.00;101984.53;5295085;28;20489;-67
2023/03/27 09:08:44;;;;;;;5.22;0.98;;;;;;;4.88;100.00;101987.50;5290882;28;20024;-67
2023/03/27 09:11:36;;;;;;;4.03;0.95;;;;;;;4.94;100.00;101994.38;5295052;28;20028;-67
2023/03/27 09:14:25;;;;;;;5.90;0.82;;;;;;;5.00;100.00;101982.72;5294934;28;20036;-67
2023/03/27 09:17:03;;;;;;;7.88;1.13;;;;;;;5.08;100.00;101981.53;5291880;28;20144;-67
2023/03/27 09:20:17;;;;;;;7.72;1.00;;;;;;;5.18;100.00;101982.06;5294226;28;20036;-67
2023/03/27 09:22:56;;;;;;;5.75;1.60;;;;;;;5.37;100.00;101973.44;5250003;28;20520;-67
2023/03/27 09:25:35;;;;;;;4.13;0.70;;;;;;;5.54;100.00;102004.59;5251957;28;20041;-67
2023/03/27 09:28:36;;;;;;;2.55;0.70;;;;;;;5.32;100.00;102025.72;5274524;28;20052;-67
2023/03/27 09:31:28;;;;;;;2.45;0.60;;;;;;;4.98;100.00;102046.22;5296895;28;20031;-67
2023/03/27 09:34:06;;;;;;;4.15;0.60;;;;;;;4.24;100.00;102060.97;5293335;28;20032;-67
2023/03/27 09:36:39;;;;;;;5.57;0.70;;;;;;;3.58;100.00;102055.81;5292003;28;20032;-67
2023/03/27 09:39:16;;;;;;;6.20;0.73;;;;;;;3.17;100.00;102059.59;5294551;28;20104;-67
2023/03/27 09:41:54;;;;;;;3.78;0.60;;;;;;;2.90;100.00;102044.41;5289906;28;20470;-67
2023/03/27 09:44:34;;;;;;;4.78;0.52;;;;;;;2.89;100.00;102045.31;5292960;28;20498;-67
2023/03/27 09:47:15;;;;;;;3.17;0.40;;;;;;;2.87;100.00;102041.84;5290456;28;20032;-67
2023/03/27 09:49:52;;;;;;;3.15;0.52;;;;;;;2.91;100.00;102043.50;5294931;28;20040;-68
2023/03/27 09:52:32;;;;;;;4.97;0.52;;;;;;;3.02;100.00;102048.50;5290605;28;20427;-68
2023/03/27 09:55:26;;;;;;;2.35;0.50;;;;;;;3.14;100.00;102047.31;5297030;28;20024;-67
2023/03/27 09:58:13;;;;;;;2.67;0.50;;;;;;;3.30;100.00;102058.34;5289582;28;20408;-67
2023/03/27 10:00:45;;;;;;;3.53;0.50;;;;;;;3.42;100.00;102062.44;5288986;28;20031;-68
2023/03/27 10:03:19;;;;;;;5.60;0.52;;;;;;;3.47;100.00;102071.06;5285255;28;20463;-68
2023/03/27 10:06:04;;;;;;;3.35;0.50;;;;;;;3.52;100.00;102066.53;5289919;28;20116;-67
2023/03/27 10:08:44;;;;;;;3.88;0.70;;;;;;;3.58;100.00;102073.44;5284727;28;20060;-67
2023/03/27 10:11:19;;;;;;;5.72;0.80;;;;;;;3.65;100.00;102073.22;5288955;28;20037;-67
2023/03/27 10:13:51;;;;;;;2.60;0.68;;;;;;;3.77;100.00;102073.78;5293459;28;20020;-68
2023/03/27 10:16:23;;;;;;;4.63;0.80;;;;;;;3.88;100.00;102074.34;5291451;28;20047;-67
2023/03/27 10:18:56;;;;;;;5.75;0.77;;;;;;;4.04;100.00;102072.97;5291697;28;20028;-68
2023/03/27 10:21:34;;;;;;;5.70;0.73;;;;;;;4.18;100.00;102069.94;5290559;28;20036;-68
2023/03/27 10:24:33;;;;;;;6.03;0.90;;;;;;;4.30;100.00;102068.72;5288375;28;20398;-68
2023/03/27 10:27:08;;;;;;;6.78;1.30;;;;;;;4.50;100.00;102060.16;5292618;28;20056;-67
2023/03/27 10:29:39;;;;;;;5.03;1.35;;;;;;;4.65;100.00;102061.44;5293493;28;20023;-67
2023/03/27 10:32:11;;;;;;;6.22;1.60;;;;;;;4.79;100.00;102056.56;5290878;28;20034;-67
2023/03/27 10:34:56;;;;;;;5.80;1.20;;;;;;;4.90;100.00;102057.06;5291783;28;20102;-67
2023/03/27 10:37:31;;;;;;;5.63;0.90;;;;;;;4.96;100.00;102049.84;5284913;28;20540;-67
2023/03/27 10:40:08;;;;;;;;;;;;;;;5.09;100.00;102053.81;5292228;28;20085;-67
2023/03/27 10:42:39;;;;;;;4.20;0.50;;;;;;;5.18;100.00;102048.22;5295005;28;19927;-67
2023/03/27 10:45:19;;;;;;;5.43;1.00;;;;;;;5.29;100.00;102046.06;5291103;28;20031;-68
2023/03/27 10:47:54;;;;;;;5.15;0.85;;;;;;;5.44;100.00;102039.34;5289359;28;20068;-67
2023/03/27 10:50:43;;;;;;;3.55;0.68;;;;;;;5.58;100.00;102059.16;5291969;28;20024;-67
2023/03/27 10:53:25;;;;;;;6.22;1.08;;;;;;;5.70;100.00;102051.66;5291359;28;20448;-68
2023/03/27 10:56:53;;;;;;;4.53;0.60;;;;;;;5.95;100.00;102060.47;5275136;28;20028;-66
2023/03/27 10:59:37;;;;;;;3.83;0.60;;;;;;;6.11;100.00;102060.78;5244425;28;20037;-67
2023/03/27 11:02:35;;;;;;;5.20;1.20;;;;;;;6.27;100.00;102093.72;5242715;28;20091;-67
2023/03/27 11:05:15;;;;;;;4.25;0.70;;;;;;;5.79;100.00;102118.44;5275888;28;20410;-68
2023/03/27 11:07:54;;;;;;;5.60;1.00;;;;;;;5.30;100.00;102134.25;5290915;28;20063;-68
2023/03/27 11:10:33;;;;;;;5.05;0.73;;;;;;;4.89;100.00;102137.34;5292522;28;20043;-67
2023/03/27 11:13:17;;;;;;;4.95;0.90;;;;;;;4.52;100.00;102127.03;5290088;28;20036;-67
2023/03/27 11:15:59;;;;;;;3.80;1.00;;;;;;;4.20;100.00;102117.41;5290977;28;20028;-68
2023/03/27 11:18:38;;;;;;;3.95;0.93;;;;;;;4.02;100.00;102126.75;5291139;28;20574;-67
2023/03/27 11:21:16;;;;;;;4.30;0.90;;;;;;;3.92;100.00;102136.72;5287764;28;20061;-67
2023/03/27 11:23:55;;;;;;;3.65;0.90;;;;;;;3.91;100.00;102138.50;5289255;28;20028;-68
2023/03/27 11:26:34;;;;;;;5.13;1.02;;;;;;;3.97;100.00;102120.72;5293261;28;20446;-68
2023/03/27 11:29:15;;;;;;;7.13;1.50;;;;;;;3.98;100.00;102135.69;5295885;28;20096;-68
2023/03/27 11:31:50;;;;;;;5.25;1.38;;;;;;;3.93;100.00;102135.78;5278370;28;20036;-67
2023/03/27 11:34:33;;;;;;;4.57;0.93;;;;;;;3.91;100.00;102132.31;5288202;28;20024;-68
2023/03/27 11:37:19;;;;;;;5.97;1.38;;;;;;;3.95;100.00;102131.34;5290727;28;20062;-68
2023/03/27 11:39:57;;;;;;;3.75;1.00;;;;;;;3.98;100.00;102135.69;5285990;28;20042;-69
2023/03/27 11:42:31;;;;;;;6.20;1.40;;;;;;;4.10;100.00;102120.34;5282403;28;20039;-68
2023/03/27 11:45:06;;;;;;;5.63;1.52;;;;;;;4.15;100.00;102138.69;5291189;28;20054;-68
2023/03/27 11:47:56;;;;;;;8.15;1.30;;;;;;;4.26;100.00;102131.34;5293457;28;20483;-67
2023/03/27 11:50:55;;;;;;;4.25;1.38;;;;;;;4.38;100.00;102126.59;5287062;28;20032;-68
2023/03/27 11:53:32;;;;;;;6.80;1.92;;;;;;;4.50;100.00;102118.28;5293721;28;20492;-68
2023/03/27 11:56:28;;;;;;;7.65;1.40;;;;;;;4.68;100.00;102124.81;5292102;28;20103;-68
2023/03/27 11:59:18;;;;;;;5.28;1.65;;;;;;;5.00;100.00;102122.91;5284993;28;20036;-68
2023/03/27 12:02:12;;;;;;;8.35;1.80;;;;;;;5.31;100.00;102122.72;5288462;28;20043;-68
2023/03/27 12:04:56;;;;;;;6.10;1.50;;;;;;;5.46;100.00;102122.19;5293987;28;20028;-68
2023/03/27 12:07:46;;;;;;;;;;;;;;;5.55;100.00;102121.03;5289420;28;20024;-68
2023/03/27 12:10:17;;;;;;;;;;;;;;;5.59;100.00;102127.94;5293174;28;19915;-68